sensor_id;sensor_type;location;lat;lon;timestamp;P1;durP1;ratioP1;P2;durP2;ratioP2
11582;SDS011;34299;50.820;4.548;2022-10-16T00:00:04;5.17;;;1.20;;
11582;SDS011;34299;50.820;4.548;2022-10-16T00:02:31;0.73;;;0.70;;
11582;SDS011;34299;50.820;4.548;2022-10-16T00:04:58;0.80;;;0.80;;
11582;SDS011;34299;50.820;4.548;2022-10-16T00:07:27;0.77;;;0.77;;
11582;SDS011;34299;50.820;4.548;2022-10-16T00:09:54;1.17;;;0.90;;
11582;SDS011;34299;50.820;4.548;2022-10-16T00:12:21;1.07;;;0.70;;
11582;SDS011;34299;50.820;4.548;2022-10-16T00:14:48;1.43;;;0.90;;
11582;SDS011;34299;50.820;4.548;2022-10-16T00:17:15;1.00;;;0.87;;
11582;SDS011;34299;50.820;4.548;2022-10-16T00:19:42;0.70;;;0.70;;
11582;SDS011;34299;50.820;4.548;2022-10-16T00:22:09;0.60;;;0.60;;
11582;SDS011;34299;50.820;4.548;2022-10-16T00:24:38;0.80;;;0.80;;
11582;SDS011;34299;50.820;4.548;2022-10-16T00:27:05;0.70;;;0.70;;
11582;SDS011;34299;50.820;4.548;2022-10-16T00:29:32;1.00;;;0.90;;
11582;SDS011;34299;50.820;4.548;2022-10-16T00:31:59;1.33;;;0.80;;
11582;SDS011;34299;50.820;4.548;2022-10-16T00:34:27;1.67;;;1.00;;
11582;SDS011;34299;50.820;4.548;2022-10-16T00:36:54;3.33;;;0.83;;
11582;SDS011;34299;50.820;4.548;2022-10-16T00:39:21;0.90;;;0.60;;
11582;SDS011;34299;50.820;4.548;2022-10-16T00:41:49;0.70;;;0.70;;
11582;SDS011;34299;50.820;4.548;2022-10-16T00:47:02;1.40;;;1.03;;
11582;SDS011;34299;50.820;4.548;2022-10-16T00:49:29;0.93;;;0.80;;
11582;SDS011;34299;50.820;4.548;2022-10-16T00:51:56;0.90;;;0.90;;
11582;SDS011;34299;50.820;4.548;2022-10-16T00:54:25;1.73;;;0.70;;
11582;SDS011;34299;50.820;4.548;2022-10-16T00:56:54;1.30;;;1.10;;
11582;SDS011;34299;50.820;4.548;2022-10-16T00:59:22;1.33;;;1.20;;
11582;SDS011;34299;50.820;4.548;2022-10-16T01:01:50;0.70;;;0.70;;
11582;SDS011;34299;50.820;4.548;2022-10-16T01:04:18;2.40;;;0.97;;
11582;SDS011;34299;50.820;4.548;2022-10-16T01:06:46;1.07;;;0.93;;
11582;SDS011;34299;50.820;4.548;2022-10-16T01:09:19;1.37;;;1.00;;
11582;SDS011;34299;50.820;4.548;2022-10-16T01:11:52;0.87;;;0.87;;
11582;SDS011;34299;50.820;4.548;2022-10-16T01:14:32;1.17;;;0.90;;
11582;SDS011;34299;50.820;4.548;2022-10-16T01:17:03;1.27;;;0.90;;
11582;SDS011;34299;50.820;4.548;2022-10-16T01:19:36;0.80;;;0.80;;
11582;SDS011;34299;50.820;4.548;2022-10-16T01:22:08;1.33;;;1.00;;
11582;SDS011;34299;50.820;4.548;2022-10-16T01:24:37;0.90;;;0.90;;
11582;SDS011;34299;50.820;4.548;2022-10-16T01:27:10;3.07;;;1.30;;
11582;SDS011;34299;50.820;4.548;2022-10-16T01:29:40;1.10;;;0.90;;
11582;SDS011;34299;50.820;4.548;2022-10-16T01:32:10;0.90;;;0.90;;
11582;SDS011;34299;50.820;4.548;2022-10-16T01:34:39;0.80;;;0.80;;
11582;SDS011;34299;50.820;4.548;2022-10-16T01:37:09;1.10;;;1.00;;
11582;SDS011;34299;50.820;4.548;2022-10-16T01:39:39;0.77;;;0.77;;
11582;SDS011;34299;50.820;4.548;2022-10-16T01:42:07;1.00;;;0.90;;
11582;SDS011;34299;50.820;4.548;2022-10-16T01:44:37;1.57;;;1.10;;
11582;SDS011;34299;50.820;4.548;2022-10-16T01:47:05;4.10;;;1.20;;
11582;SDS011;34299;50.820;4.548;2022-10-16T01:49:36;1.10;;;1.07;;
11582;SDS011;34299;50.820;4.548;2022-10-16T01:52:04;1.33;;;1.20;;
11582;SDS011;34299;50.820;4.548;2022-10-16T01:54:33;1.33;;;0.90;;
11582;SDS011;34299;50.820;4.548;2022-10-16T01:57:01;0.73;;;0.73;;
11582;SDS011;34299;50.820;4.548;2022-10-16T01:59:31;1.53;;;1.03;;
11582;SDS011;34299;50.820;4.548;2022-10-16T02:02:00;1.73;;;0.93;;
11582;SDS011;34299;50.820;4.548;2022-10-16T02:04:28;1.77;;;0.93;;
11582;SDS011;34299;50.820;4.548;2022-10-16T02:06:56;2.50;;;1.40;;
11582;SDS011;34299;50.820;4.548;2022-10-16T02:09:23;1.27;;;1.17;;
11582;SDS011;34299;50.820;4.548;2022-10-16T02:11:51;1.10;;;1.00;;
11582;SDS011;34299;50.820;4.548;2022-10-16T02:14:19;2.10;;;1.00;;
11582;SDS011;34299;50.820;4.548;2022-10-16T02:16:49;2.53;;;1.40;;
11582;SDS011;34299;50.820;4.548;2022-10-16T02:19:17;1.00;;;0.90;;
11582;SDS011;34299;50.820;4.548;2022-10-16T02:21:46;1.13;;;1.03;;
11582;SDS011;34299;50.820;4.548;2022-10-16T02:24:18;2.03;;;0.90;;
11582;SDS011;34299;50.820;4.548;2022-10-16T02:26:51;1.13;;;1.03;;
11582;SDS011;34299;50.820;4.548;2022-10-16T02:29:20;1.23;;;1.00;;
11582;SDS011;34299;50.820;4.548;2022-10-16T02:31:50;3.27;;;1.17;;
11582;SDS011;34299;50.820;4.548;2022-10-16T02:34:20;1.23;;;0.87;;
11582;SDS011;34299;50.820;4.548;2022-10-16T02:36:48;1.07;;;0.97;;
11582;SDS011;34299;50.820;4.548;2022-10-16T02:39:16;2.00;;;1.30;;
11582;SDS011;34299;50.820;4.548;2022-10-16T02:41:43;1.53;;;1.43;;
11582;SDS011;34299;50.820;4.548;2022-10-16T02:44:10;1.50;;;1.40;;
11582;SDS011;34299;50.820;4.548;2022-10-16T02:46:38;1.30;;;1.20;;
11582;SDS011;34299;50.820;4.548;2022-10-16T02:49:05;1.77;;;1.10;;
11582;SDS011;34299;50.820;4.548;2022-10-16T02:51:33;1.47;;;1.37;;
11582;SDS011;34299;50.820;4.548;2022-10-16T02:54:01;2.37;;;1.17;;
11582;SDS011;34299;50.820;4.548;2022-10-16T02:56:28;1.10;;;1.00;;
11582;SDS011;34299;50.820;4.548;2022-10-16T02:58:56;1.00;;;1.00;;
11582;SDS011;34299;50.820;4.548;2022-10-16T03:01:23;1.43;;;1.33;;
11582;SDS011;34299;50.820;4.548;2022-10-16T03:03:50;1.27;;;1.17;;
11582;SDS011;34299;50.820;4.548;2022-10-16T03:06:17;2.13;;;1.10;;
11582;SDS011;34299;50.820;4.548;2022-10-16T03:08:46;1.40;;;1.30;;
11582;SDS011;34299;50.820;4.548;2022-10-16T03:11:13;1.27;;;1.10;;
11582;SDS011;34299;50.820;4.548;2022-10-16T03:13:40;3.80;;;1.60;;
11582;SDS011;34299;50.820;4.548;2022-10-16T03:16:07;1.90;;;1.30;;
11582;SDS011;34299;50.820;4.548;2022-10-16T03:18:35;1.20;;;1.10;;
11582;SDS011;34299;50.820;4.548;2022-10-16T03:21:02;3.57;;;2.17;;
11582;SDS011;34299;50.820;4.548;2022-10-16T03:23:29;1.70;;;1.37;;
11582;SDS011;34299;50.820;4.548;2022-10-16T03:25:58;2.40;;;1.20;;
11582;SDS011;34299;50.820;4.548;2022-10-16T03:28:25;1.40;;;1.30;;
11582;SDS011;34299;50.820;4.548;2022-10-16T03:30:52;2.17;;;1.00;;
11582;SDS011;34299;50.820;4.548;2022-10-16T03:33:22;1.27;;;1.20;;
11582;SDS011;34299;50.820;4.548;2022-10-16T03:35:52;3.57;;;1.50;;
11582;SDS011;34299;50.820;4.548;2022-10-16T03:38:19;2.07;;;1.33;;
11582;SDS011;34299;50.820;4.548;2022-10-16T03:40:47;3.30;;;1.43;;
11582;SDS011;34299;50.820;4.548;2022-10-16T03:43:15;4.00;;;1.50;;
11582;SDS011;34299;50.820;4.548;2022-10-16T03:45:43;2.17;;;1.53;;
11582;SDS011;34299;50.820;4.548;2022-10-16T03:48:10;2.77;;;1.40;;
11582;SDS011;34299;50.820;4.548;2022-10-16T03:50:37;2.23;;;1.20;;
11582;SDS011;34299;50.820;4.548;2022-10-16T03:53:05;3.23;;;1.37;;
11582;SDS011;34299;50.820;4.548;2022-10-16T03:55:32;1.97;;;1.53;;
11582;SDS011;34299;50.820;4.548;2022-10-16T03:57:59;1.60;;;1.50;;
11582;SDS011;34299;50.820;4.548;2022-10-16T04:00:28;3.70;;;1.50;;
11582;SDS011;34299;50.820;4.548;2022-10-16T04:02:56;3.43;;;1.43;;
11582;SDS011;34299;50.820;4.548;2022-10-16T04:05:23;2.60;;;1.40;;
11582;SDS011;34299;50.820;4.548;2022-10-16T04:07:50;2.27;;;1.50;;
11582;SDS011;34299;50.820;4.548;2022-10-16T04:10:20;1.47;;;1.30;;
11582;SDS011;34299;50.820;4.548;2022-10-16T04:12:47;1.93;;;1.60;;
11582;SDS011;34299;50.820;4.548;2022-10-16T04:15:14;1.20;;;1.00;;
11582;SDS011;34299;50.820;4.548;2022-10-16T04:17:43;2.60;;;1.60;;
11582;SDS011;34299;50.820;4.548;2022-10-16T04:20:10;2.90;;;1.73;;
11582;SDS011;34299;50.820;4.548;2022-10-16T04:22:37;1.53;;;1.43;;
11582;SDS011;34299;50.820;4.548;2022-10-16T04:25:05;1.90;;;1.50;;
11582;SDS011;34299;50.820;4.548;2022-10-16T04:27:32;3.00;;;1.27;;
11582;SDS011;34299;50.820;4.548;2022-10-16T04:29:59;1.27;;;1.17;;
11582;SDS011;34299;50.820;4.548;2022-10-16T04:32:27;1.50;;;1.40;;
11582;SDS011;34299;50.820;4.548;2022-10-16T04:34:55;2.97;;;1.40;;
11582;SDS011;34299;50.820;4.548;2022-10-16T04:37:23;3.27;;;1.60;;
11582;SDS011;34299;50.820;4.548;2022-10-16T04:39:51;1.87;;;1.33;;
11582;SDS011;34299;50.820;4.548;2022-10-16T04:42:18;1.97;;;1.20;;
11582;SDS011;34299;50.820;4.548;2022-10-16T04:44:46;2.00;;;1.67;;
11582;SDS011;34299;50.820;4.548;2022-10-16T04:47:13;2.13;;;1.50;;
11582;SDS011;34299;50.820;4.548;2022-10-16T04:49:40;2.77;;;1.30;;
11582;SDS011;34299;50.820;4.548;2022-10-16T04:52:09;2.73;;;1.43;;
11582;SDS011;34299;50.820;4.548;2022-10-16T04:54:36;3.60;;;1.77;;
11582;SDS011;34299;50.820;4.548;2022-10-16T04:57:03;4.20;;;2.20;;
11582;SDS011;34299;50.820;4.548;2022-10-16T04:59:30;5.03;;;1.90;;
11582;SDS011;34299;50.820;4.548;2022-10-16T05:01:58;2.27;;;1.53;;
11582;SDS011;34299;50.820;4.548;2022-10-16T05:04:25;1.80;;;1.40;;
11582;SDS011;34299;50.820;4.548;2022-10-16T05:06:52;3.03;;;2.07;;
11582;SDS011;34299;50.820;4.548;2022-10-16T05:09:21;2.27;;;1.50;;
11582;SDS011;34299;50.820;4.548;2022-10-16T05:11:48;2.17;;;1.67;;
11582;SDS011;34299;50.820;4.548;2022-10-16T05:14:15;3.47;;;1.70;;
11582;SDS011;34299;50.820;4.548;2022-10-16T05:16:44;4.20;;;1.47;;
11582;SDS011;34299;50.820;4.548;2022-10-16T05:19:13;1.50;;;1.40;;
11582;SDS011;34299;50.820;4.548;2022-10-16T05:21:40;3.60;;;1.60;;
11582;SDS011;34299;50.820;4.548;2022-10-16T05:24:07;1.37;;;1.27;;
11582;SDS011;34299;50.820;4.548;2022-10-16T05:26:35;2.43;;;1.50;;
11582;SDS011;34299;50.820;4.548;2022-10-16T05:29:03;1.87;;;1.53;;
11582;SDS011;34299;50.820;4.548;2022-10-16T05:31:30;1.67;;;1.57;;
11582;SDS011;34299;50.820;4.548;2022-10-16T05:33:58;2.67;;;1.83;;
11582;SDS011;34299;50.820;4.548;2022-10-16T05:36:25;2.30;;;1.60;;
11582;SDS011;34299;50.820;4.548;2022-10-16T05:38:53;2.33;;;1.73;;
11582;SDS011;34299;50.820;4.548;2022-10-16T05:41:20;3.30;;;1.63;;
11582;SDS011;34299;50.820;4.548;2022-10-16T05:43:51;2.30;;;1.60;;
11582;SDS011;34299;50.820;4.548;2022-10-16T05:46:19;1.33;;;1.23;;
11582;SDS011;34299;50.820;4.548;2022-10-16T05:48:46;3.17;;;1.77;;
11582;SDS011;34299;50.820;4.548;2022-10-16T05:51:13;1.70;;;1.60;;
11582;SDS011;34299;50.820;4.548;2022-10-16T05:53:41;1.87;;;1.77;;
11582;SDS011;34299;50.820;4.548;2022-10-16T05:56:09;3.20;;;1.70;;
11582;SDS011;34299;50.820;4.548;2022-10-16T05:58:40;5.57;;;1.93;;
11582;SDS011;34299;50.820;4.548;2022-10-16T06:01:11;3.13;;;1.63;;
11582;SDS011;34299;50.820;4.548;2022-10-16T06:03:38;2.87;;;1.57;;
11582;SDS011;34299;50.820;4.548;2022-10-16T06:06:09;2.20;;;1.80;;
11582;SDS011;34299;50.820;4.548;2022-10-16T06:08:36;4.50;;;1.63;;
11582;SDS011;34299;50.820;4.548;2022-10-16T06:11:04;3.20;;;1.80;;
11582;SDS011;34299;50.820;4.548;2022-10-16T06:13:32;3.67;;;1.87;;
11582;SDS011;34299;50.820;4.548;2022-10-16T06:15:59;2.23;;;2.00;;
11582;SDS011;34299;50.820;4.548;2022-10-16T06:18:28;5.90;;;1.73;;
11582;SDS011;34299;50.820;4.548;2022-10-16T06:20:56;1.60;;;1.50;;
11582;SDS011;34299;50.820;4.548;2022-10-16T06:23:24;2.30;;;1.77;;
11582;SDS011;34299;50.820;4.548;2022-10-16T06:25:51;5.33;;;1.90;;
11582;SDS011;34299;50.820;4.548;2022-10-16T06:28:18;3.23;;;2.40;;
11582;SDS011;34299;50.820;4.548;2022-10-16T06:30:46;4.27;;;1.97;;
11582;SDS011;34299;50.820;4.548;2022-10-16T06:33:13;3.77;;;1.50;;
11582;SDS011;34299;50.820;4.548;2022-10-16T06:35:41;2.77;;;1.93;;
11582;SDS011;34299;50.820;4.548;2022-10-16T06:38:08;5.30;;;2.10;;
11582;SDS011;34299;50.820;4.548;2022-10-16T06:40:36;2.30;;;1.67;;
11582;SDS011;34299;50.820;4.548;2022-10-16T06:43:03;3.70;;;2.00;;
11582;SDS011;34299;50.820;4.548;2022-10-16T06:45:30;2.60;;;1.97;;
11582;SDS011;34299;50.820;4.548;2022-10-16T06:47:57;1.67;;;1.50;;
11582;SDS011;34299;50.820;4.548;2022-10-16T06:50:24;1.97;;;1.70;;
11582;SDS011;34299;50.820;4.548;2022-10-16T06:52:53;4.73;;;2.00;;
11582;SDS011;34299;50.820;4.548;2022-10-16T06:55:20;2.27;;;2.00;;
11582;SDS011;34299;50.820;4.548;2022-10-16T06:57:47;3.03;;;2.13;;
11582;SDS011;34299;50.820;4.548;2022-10-16T07:00:14;2.77;;;1.70;;
11582;SDS011;34299;50.820;4.548;2022-10-16T07:02:42;2.37;;;1.90;;
11582;SDS011;34299;50.820;4.548;2022-10-16T07:05:09;3.50;;;2.00;;
11582;SDS011;34299;50.820;4.548;2022-10-16T07:07:36;1.87;;;1.67;;
11582;SDS011;34299;50.820;4.548;2022-10-16T07:10:05;3.87;;;2.03;;
11582;SDS011;34299;50.820;4.548;2022-10-16T07:12:32;3.63;;;1.93;;
11582;SDS011;34299;50.820;4.548;2022-10-16T07:14:59;7.23;;;2.23;;
11582;SDS011;34299;50.820;4.548;2022-10-16T07:17:26;3.17;;;2.20;;
11582;SDS011;34299;50.820;4.548;2022-10-16T07:19:54;2.87;;;2.17;;
11582;SDS011;34299;50.820;4.548;2022-10-16T07:22:21;3.27;;;1.83;;
11582;SDS011;34299;50.820;4.548;2022-10-16T07:24:48;4.10;;;2.00;;
11582;SDS011;34299;50.820;4.548;2022-10-16T07:27:18;3.70;;;2.23;;
11582;SDS011;34299;50.820;4.548;2022-10-16T07:29:47;4.97;;;2.10;;
11582;SDS011;34299;50.820;4.548;2022-10-16T07:32:14;2.57;;;2.37;;
11582;SDS011;34299;50.820;4.548;2022-10-16T07:34:41;5.67;;;2.27;;
11582;SDS011;34299;50.820;4.548;2022-10-16T07:37:09;1.97;;;1.60;;
11582;SDS011;34299;50.820;4.548;2022-10-16T07:39:36;2.63;;;1.43;;
11582;SDS011;34299;50.820;4.548;2022-10-16T07:42:03;2.13;;;1.93;;
11582;SDS011;34299;50.820;4.548;2022-10-16T07:44:31;3.57;;;2.00;;
11582;SDS011;34299;50.820;4.548;2022-10-16T07:46:59;1.97;;;1.77;;
11582;SDS011;34299;50.820;4.548;2022-10-16T07:49:26;3.57;;;2.17;;
11582;SDS011;34299;50.820;4.548;2022-10-16T07:51:53;3.90;;;2.10;;
11582;SDS011;34299;50.820;4.548;2022-10-16T07:54:20;1.90;;;1.63;;
11582;SDS011;34299;50.820;4.548;2022-10-16T07:56:47;5.40;;;1.70;;
11582;SDS011;34299;50.820;4.548;2022-10-16T07:59:14;3.13;;;1.40;;
11582;SDS011;34299;50.820;4.548;2022-10-16T08:01:43;1.60;;;1.50;;
11582;SDS011;34299;50.820;4.548;2022-10-16T08:04:10;5.47;;;1.67;;
11582;SDS011;34299;50.820;4.548;2022-10-16T08:06:38;2.07;;;1.40;;
11582;SDS011;34299;50.820;4.548;2022-10-16T08:09:06;1.63;;;1.30;;
11582;SDS011;34299;50.820;4.548;2022-10-16T08:11:34;2.03;;;1.17;;
11582;SDS011;34299;50.820;4.548;2022-10-16T08:14:01;2.93;;;1.27;;
11582;SDS011;34299;50.820;4.548;2022-10-16T08:16:28;1.40;;;1.30;;
11582;SDS011;34299;50.820;4.548;2022-10-16T08:18:57;1.53;;;1.30;;
11582;SDS011;34299;50.820;4.548;2022-10-16T08:21:24;1.23;;;1.07;;
11582;SDS011;34299;50.820;4.548;2022-10-16T08:23:52;1.40;;;1.30;;
11582;SDS011;34299;50.820;4.548;2022-10-16T08:26:20;2.73;;;1.43;;
11582;SDS011;34299;50.820;4.548;2022-10-16T08:28:49;3.03;;;1.07;;
11582;SDS011;34299;50.820;4.548;2022-10-16T08:31:16;2.33;;;1.00;;
11582;SDS011;34299;50.820;4.548;2022-10-16T08:33:44;1.33;;;0.97;;
11582;SDS011;34299;50.820;4.548;2022-10-16T08:36:13;3.03;;;1.43;;
11582;SDS011;34299;50.820;4.548;2022-10-16T08:38:41;2.83;;;1.07;;
11582;SDS011;34299;50.820;4.548;2022-10-16T08:41:13;1.33;;;1.10;;
11582;SDS011;34299;50.820;4.548;2022-10-16T08:43:52;5.40;;;1.30;;
11582;SDS011;34299;50.820;4.548;2022-10-16T08:46:25;2.77;;;1.30;;
11582;SDS011;34299;50.820;4.548;2022-10-16T08:48:57;2.27;;;0.73;;
11582;SDS011;34299;50.820;4.548;2022-10-16T08:51:27;4.23;;;1.13;;
11582;SDS011;34299;50.820;4.548;2022-10-16T08:53:56;1.47;;;1.30;;
11582;SDS011;34299;50.820;4.548;2022-10-16T08:56:24;1.53;;;0.80;;
11582;SDS011;34299;50.820;4.548;2022-10-16T08:58:51;2.27;;;1.20;;
11582;SDS011;34299;50.820;4.548;2022-10-16T09:01:19;2.70;;;1.07;;
11582;SDS011;34299;50.820;4.548;2022-10-16T09:03:58;2.80;;;0.90;;
11582;SDS011;34299;50.820;4.548;2022-10-16T09:06:29;3.40;;;1.20;;
11582;SDS011;34299;50.820;4.548;2022-10-16T09:09:03;1.07;;;0.93;;
11582;SDS011;34299;50.820;4.548;2022-10-16T09:11:37;2.50;;;1.10;;
11582;SDS011;34299;50.820;4.548;2022-10-16T09:14:13;3.03;;;0.97;;
11582;SDS011;34299;50.820;4.548;2022-10-16T09:16:45;4.03;;;1.70;;
11582;SDS011;34299;50.820;4.548;2022-10-16T09:19:13;3.00;;;1.00;;
11582;SDS011;34299;50.820;4.548;2022-10-16T09:21:45;1.60;;;0.93;;
11582;SDS011;34299;50.820;4.548;2022-10-16T09:24:13;2.17;;;0.87;;
11582;SDS011;34299;50.820;4.548;2022-10-16T09:26:41;1.53;;;0.90;;
11582;SDS011;34299;50.820;4.548;2022-10-16T09:29:08;1.10;;;0.83;;
11582;SDS011;34299;50.820;4.548;2022-10-16T09:31:37;1.80;;;1.00;;
11582;SDS011;34299;50.820;4.548;2022-10-16T09:34:04;4.80;;;1.20;;
11582;SDS011;34299;50.820;4.548;2022-10-16T09:36:35;4.17;;;1.33;;
11582;SDS011;34299;50.820;4.548;2022-10-16T09:39:05;2.33;;;1.10;;
11582;SDS011;34299;50.820;4.548;2022-10-16T09:41:34;2.93;;;1.00;;
11582;SDS011;34299;50.820;4.548;2022-10-16T09:44:01;2.00;;;1.20;;
11582;SDS011;34299;50.820;4.548;2022-10-16T09:46:30;2.03;;;1.10;;
11582;SDS011;34299;50.820;4.548;2022-10-16T09:48:58;3.73;;;1.50;;
11582;SDS011;34299;50.820;4.548;2022-10-16T09:51:27;3.70;;;0.87;;
11582;SDS011;34299;50.820;4.548;2022-10-16T09:53:55;1.43;;;0.77;;
11582;SDS011;34299;50.820;4.548;2022-10-16T09:56:25;1.37;;;0.80;;
11582;SDS011;34299;50.820;4.548;2022-10-16T09:58:53;4.67;;;0.90;;
11582;SDS011;34299;50.820;4.548;2022-10-16T10:01:21;4.00;;;1.03;;
11582;SDS011;34299;50.820;4.548;2022-10-16T10:03:49;2.53;;;0.80;;
11582;SDS011;34299;50.820;4.548;2022-10-16T10:06:24;2.03;;;1.10;;
11582;SDS011;34299;50.820;4.548;2022-10-16T10:08:52;0.97;;;0.80;;
11582;SDS011;34299;50.820;4.548;2022-10-16T10:14:08;1.00;;;0.90;;
11582;SDS011;34299;50.820;4.548;2022-10-16T10:16:40;4.27;;;1.23;;
11582;SDS011;34299;50.820;4.548;2022-10-16T10:19:09;2.67;;;1.00;;
11582;SDS011;34299;50.820;4.548;2022-10-16T10:21:40;6.07;;;1.20;;
11582;SDS011;34299;50.820;4.548;2022-10-16T10:24:09;3.13;;;1.17;;
11582;SDS011;34299;50.820;4.548;2022-10-16T10:26:36;3.03;;;1.27;;
11582;SDS011;34299;50.820;4.548;2022-10-16T10:29:05;3.63;;;1.13;;
11582;SDS011;34299;50.820;4.548;2022-10-16T10:31:36;3.30;;;0.70;;
11582;SDS011;34299;50.820;4.548;2022-10-16T10:34:11;1.93;;;1.40;;
11582;SDS011;34299;50.820;4.548;2022-10-16T10:36:44;3.00;;;0.83;;
11582;SDS011;34299;50.820;4.548;2022-10-16T10:39:15;5.53;;;1.30;;
11582;SDS011;34299;50.820;4.548;2022-10-16T10:41:53;1.03;;;0.80;;
11582;SDS011;34299;50.820;4.548;2022-10-16T10:44:25;1.53;;;0.87;;
11582;SDS011;34299;50.820;4.548;2022-10-16T10:47:01;4.43;;;0.83;;
11582;SDS011;34299;50.820;4.548;2022-10-16T10:49:33;1.10;;;1.00;;
11582;SDS011;34299;50.820;4.548;2022-10-16T10:52:08;2.53;;;1.17;;
11582;SDS011;34299;50.820;4.548;2022-10-16T10:54:41;1.50;;;0.90;;
11582;SDS011;34299;50.820;4.548;2022-10-16T10:57:15;5.43;;;1.00;;
11582;SDS011;34299;50.820;4.548;2022-10-16T11:02:33;1.57;;;0.60;;
11582;SDS011;34299;50.820;4.548;2022-10-16T11:05:19;1.93;;;0.90;;
11582;SDS011;34299;50.820;4.548;2022-10-16T11:07:49;2.20;;;1.10;;
11582;SDS011;34299;50.820;4.548;2022-10-16T11:10:18;1.83;;;0.67;;
11582;SDS011;34299;50.820;4.548;2022-10-16T11:12:47;2.30;;;0.90;;
11582;SDS011;34299;50.820;4.548;2022-10-16T11:15:18;3.83;;;0.90;;
11582;SDS011;34299;50.820;4.548;2022-10-16T11:17:50;2.00;;;1.20;;
11582;SDS011;34299;50.820;4.548;2022-10-16T11:20:19;1.83;;;0.70;;
11582;SDS011;34299;50.820;4.548;2022-10-16T11:22:50;2.50;;;0.80;;
11582;SDS011;34299;50.820;4.548;2022-10-16T11:25:20;2.93;;;1.00;;
11582;SDS011;34299;50.820;4.548;2022-10-16T11:27:50;1.20;;;0.83;;
11582;SDS011;34299;50.820;4.548;2022-10-16T11:30:19;2.83;;;1.03;;
11582;SDS011;34299;50.820;4.548;2022-10-16T11:32:56;1.90;;;0.70;;
11582;SDS011;34299;50.820;4.548;2022-10-16T11:35:31;2.20;;;0.70;;
11582;SDS011;34299;50.820;4.548;2022-10-16T11:38:01;1.20;;;0.70;;
11582;SDS011;34299;50.820;4.548;2022-10-16T11:40:31;1.93;;;1.10;;
11582;SDS011;34299;50.820;4.548;2022-10-16T11:43:01;1.50;;;0.80;;
11582;SDS011;34299;50.820;4.548;2022-10-16T11:45:33;2.30;;;1.10;;
11582;SDS011;34299;50.820;4.548;2022-10-16T11:48:04;1.97;;;1.00;;
11582;SDS011;34299;50.820;4.548;2022-10-16T11:50:34;1.80;;;1.13;;
11582;SDS011;34299;50.820;4.548;2022-10-16T11:53:04;3.43;;;1.07;;
11582;SDS011;34299;50.820;4.548;2022-10-16T11:55:36;0.80;;;0.80;;
11582;SDS011;34299;50.820;4.548;2022-10-16T11:58:04;2.13;;;0.70;;
11582;SDS011;34299;50.820;4.548;2022-10-16T12:00:34;3.37;;;1.10;;
11582;SDS011;34299;50.820;4.548;2022-10-16T12:03:08;2.73;;;0.93;;
11582;SDS011;34299;50.820;4.548;2022-10-16T12:05:44;2.67;;;0.70;;
11582;SDS011;34299;50.820;4.548;2022-10-16T12:08:16;1.50;;;0.90;;
11582;SDS011;34299;50.820;4.548;2022-10-16T12:10:44;2.07;;;0.97;;
11582;SDS011;34299;50.820;4.548;2022-10-16T12:13:31;2.13;;;0.93;;
11582;SDS011;34299;50.820;4.548;2022-10-16T12:18:46;3.63;;;1.27;;
11582;SDS011;34299;50.820;4.548;2022-10-16T12:21:14;2.67;;;1.00;;
11582;SDS011;34299;50.820;4.548;2022-10-16T12:23:46;1.83;;;1.00;;
11582;SDS011;34299;50.820;4.548;2022-10-16T12:26:14;2.23;;;1.03;;
11582;SDS011;34299;50.820;4.548;2022-10-16T12:28:50;1.00;;;0.80;;
11582;SDS011;34299;50.820;4.548;2022-10-16T12:31:17;5.47;;;1.10;;
11582;SDS011;34299;50.820;4.548;2022-10-16T12:33:53;2.30;;;0.70;;
11582;SDS011;34299;50.820;4.548;2022-10-16T12:36:26;1.23;;;0.87;;
11582;SDS011;34299;50.820;4.548;2022-10-16T12:38:54;2.30;;;0.80;;
11582;SDS011;34299;50.820;4.548;2022-10-16T12:41:25;2.53;;;0.70;;
11582;SDS011;34299;50.820;4.548;2022-10-16T12:43:53;3.03;;;0.90;;
11582;SDS011;34299;50.820;4.548;2022-10-16T12:46:21;2.03;;;0.90;;
11582;SDS011;34299;50.820;4.548;2022-10-16T12:48:49;1.37;;;0.87;;
11582;SDS011;34299;50.820;4.548;2022-10-16T12:51:23;0.80;;;0.60;;
11582;SDS011;34299;50.820;4.548;2022-10-16T12:53:58;0.77;;;0.77;;
11582;SDS011;34299;50.820;4.548;2022-10-16T12:56:27;0.70;;;0.67;;
11582;SDS011;34299;50.820;4.548;2022-10-16T12:59:03;2.13;;;1.10;;
11582;SDS011;34299;50.820;4.548;2022-10-16T13:01:39;1.80;;;0.67;;
11582;SDS011;34299;50.820;4.548;2022-10-16T13:04:17;2.10;;;0.87;;
11582;SDS011;34299;50.820;4.548;2022-10-16T13:06:50;1.50;;;0.60;;
11582;SDS011;34299;50.820;4.548;2022-10-16T13:09:27;0.67;;;0.50;;
11582;SDS011;34299;50.820;4.548;2022-10-16T13:12:05;2.50;;;1.03;;
11582;SDS011;34299;50.820;4.548;2022-10-16T13:14:39;3.10;;;2.53;;
11582;SDS011;34299;50.820;4.548;2022-10-16T13:17:11;3.37;;;1.00;;
11582;SDS011;34299;50.820;4.548;2022-10-16T13:19:42;2.10;;;1.00;;
11582;SDS011;34299;50.820;4.548;2022-10-16T13:22:14;3.00;;;1.10;;
11582;SDS011;34299;50.820;4.548;2022-10-16T13:24:49;1.17;;;0.83;;
11582;SDS011;34299;50.820;4.548;2022-10-16T13:27:22;1.60;;;0.60;;
11582;SDS011;34299;50.820;4.548;2022-10-16T13:29:53;2.63;;;0.83;;
11582;SDS011;34299;50.820;4.548;2022-10-16T13:32:21;2.67;;;1.00;;
11582;SDS011;34299;50.820;4.548;2022-10-16T13:34:48;2.63;;;0.90;;
11582;SDS011;34299;50.820;4.548;2022-10-16T13:37:18;1.93;;;1.20;;
11582;SDS011;34299;50.820;4.548;2022-10-16T13:39:46;3.27;;;1.23;;
11582;SDS011;34299;50.820;4.548;2022-10-16T13:42:13;3.33;;;1.30;;
11582;SDS011;34299;50.820;4.548;2022-10-16T13:44:42;2.70;;;1.43;;
11582;SDS011;34299;50.820;4.548;2022-10-16T13:47:14;2.77;;;1.10;;
11582;SDS011;34299;50.820;4.548;2022-10-16T13:49:42;1.77;;;0.90;;
11582;SDS011;34299;50.820;4.548;2022-10-16T13:52:15;4.20;;;1.50;;
11582;SDS011;34299;50.820;4.548;2022-10-16T13:54:44;4.20;;;1.40;;
11582;SDS011;34299;50.820;4.548;2022-10-16T13:57:12;3.30;;;1.03;;
11582;SDS011;34299;50.820;4.548;2022-10-16T13:59:40;1.63;;;1.20;;
11582;SDS011;34299;50.820;4.548;2022-10-16T14:02:10;2.90;;;1.50;;
11582;SDS011;34299;50.820;4.548;2022-10-16T14:04:41;2.70;;;1.30;;
11582;SDS011;34299;50.820;4.548;2022-10-16T14:07:11;2.13;;;1.13;;
11582;SDS011;34299;50.820;4.548;2022-10-16T14:09:40;1.63;;;0.87;;
11582;SDS011;34299;50.820;4.548;2022-10-16T14:12:09;1.93;;;1.07;;
11582;SDS011;34299;50.820;4.548;2022-10-16T14:14:40;1.63;;;1.10;;
11582;SDS011;34299;50.820;4.548;2022-10-16T14:17:13;1.03;;;0.93;;
11582;SDS011;34299;50.820;4.548;2022-10-16T14:19:40;1.97;;;0.80;;
11582;SDS011;34299;50.820;4.548;2022-10-16T14:22:26;3.23;;;1.13;;
11582;SDS011;34299;50.820;4.548;2022-10-16T14:24:55;2.27;;;1.20;;
11582;SDS011;34299;50.820;4.548;2022-10-16T14:27:28;1.87;;;1.10;;
11582;SDS011;34299;50.820;4.548;2022-10-16T14:30:08;3.77;;;1.40;;
11582;SDS011;34299;50.820;4.548;2022-10-16T14:32:35;1.23;;;1.10;;
11582;SDS011;34299;50.820;4.548;2022-10-16T14:35:02;1.77;;;1.30;;
11582;SDS011;34299;50.820;4.548;2022-10-16T14:37:30;1.70;;;1.00;;
11582;SDS011;34299;50.820;4.548;2022-10-16T14:39:57;2.43;;;1.10;;
11582;SDS011;34299;50.820;4.548;2022-10-16T14:42:24;2.03;;;1.50;;
11582;SDS011;34299;50.820;4.548;2022-10-16T14:44:53;2.47;;;1.07;;
11582;SDS011;34299;50.820;4.548;2022-10-16T14:47:22;2.17;;;1.00;;
11582;SDS011;34299;50.820;4.548;2022-10-16T14:49:51;2.87;;;1.00;;
11582;SDS011;34299;50.820;4.548;2022-10-16T14:52:20;2.33;;;1.00;;
11582;SDS011;34299;50.820;4.548;2022-10-16T14:54:47;2.87;;;0.90;;
11582;SDS011;34299;50.820;4.548;2022-10-16T14:57:16;1.50;;;0.90;;
11582;SDS011;34299;50.820;4.548;2022-10-16T14:59:43;1.93;;;0.80;;
11582;SDS011;34299;50.820;4.548;2022-10-16T15:02:15;1.73;;;0.70;;
11582;SDS011;34299;50.820;4.548;2022-10-16T15:04:43;1.43;;;0.80;;
11582;SDS011;34299;50.820;4.548;2022-10-16T15:07:10;1.40;;;0.80;;
11582;SDS011;34299;50.820;4.548;2022-10-16T15:09:38;1.63;;;0.70;;